Flight Track Log - Related Links

Times and Time Zones

All times are in EDT time to prevent confusion due to time zone crossing. See the N102QS flight status page for this flight to view local times or setup timezone preferences in your user account.

Time Position Orientation Groundspeed Altitude Reporting Facility
EDT Latitude Longitude Course Direction KTS MPH feet Rate Location/Type
Tue 02:50:35 PM 41.8242 -87.7692 90° East 219 252 2,400  Level Chicago Center
Tue 02:51:37 PM 41.8381 -87.6789 78° East 277 319 4,000 1,790 Climbing Chicago Center
Tue 02:52:39 PM 41.8228 -87.5672 100° East 280 322 6,100 2,710 Climbing Chicago Center
Tue 02:53:41 PM 41.8092 -87.4622 100° East 285 328 9,600 3,000 Climbing Chicago Center
Tue 02:54:43 PM 41.7972 -87.3475 98° East 310 357 12,300 2,516 Climbing Chicago Center
Tue 02:55:45 PM 41.7814 -87.2172 99° East 328 377 14,800 2,419 Climbing Chicago Center
Tue 02:56:00 PM 41.7500 -86.8929 90° East  Level FlightAware Approximate
Tue 02:56:47 PM 41.7653 -87.0869 99° East 349 402 17,300  Level Chicago Center
Tue 02:57:49 PM 41.7628 -86.9472 91° East 366 421 19,100 1,839 Climbing Chicago Center
Tue 02:58:51 PM 41.7647 -86.8056 89° East 375 432 21,100 2,016 Climbing Chicago Center
Tue 02:59:54 PM 41.7667 -86.6456 89° East 387 445 23,300 2,112 Climbing Chicago Center
Tue 03:00:56 PM 41.7678 -86.4994 89° East 392 451 25,500 1,597 Climbing Chicago Center
Tue 03:01:58 PM 41.7681 -86.3503 90° East 397 457 26,600 1,210 Climbing Chicago Center
Tue 03:03:00 PM 41.7903 -86.1953 79° East 420 483 28,000 1,258 Climbing Chicago Center
Tue 03:04:02 PM 41.8169 -86.0364 77° East 431 496 29,200 1,355 Climbing Chicago Center
Tue 03:05:04 PM 41.8444 -85.8750 77° East 439 505 30,800 1,452 Climbing Chicago Center
Tue 03:06:06 PM 41.8769 -85.6839 77° East 437 503 32,200 1,344 Climbing Chicago Center
Tue 03:07:09 PM 41.9053 -85.5203 77° East 441 507 33,600 1,104 Climbing Chicago Center
Tue 03:08:11 PM 41.9308 -85.3597 78° East 438 504 34,500 823 Climbing Chicago Center
Tue 03:09:13 PM 41.9519 -85.1958 80° East 440 506 35,300 871 Climbing Chicago Center
Tue 03:10:15 PM 41.9508 -85.0314 90° East 438 504 36,300 823 Climbing Chicago Center
Tue 03:11:17 PM 41.9611 -84.8711 85° East 448 516 37,000 629 Climbing Chicago Center
Tue 03:12:19 PM 41.9906 -84.7092 76° East 433 498 37,600 577 Climbing Chicago Center
Tue 03:13:01 PM 42.0111 -84.5922 77° East 428 493 38,000 462 Climbing Cleveland Center
Tue 03:14:03 PM 42.0383 -84.4342 77° East 429 494 38,400 484 Climbing Cleveland Center
Tue 03:15:05 PM 42.0664 -84.2769 76° East 431 496 39,000 384 Climbing Cleveland Center
Tue 03:16:08 PM 42.0922 -84.1203 77° East 431 496 39,200 435 Climbing Cleveland Center
Tue 03:17:09 PM 42.1247 -83.9339 77° East 431 496 39,900 341 Climbing Cleveland Center
Tue 03:18:11 PM 42.1511 -83.7783 77° East 430 495 39,900 145 Level Cleveland Center
Tue 03:19:13 PM 42.1775 -83.6211 77° East 431 496 40,200 387 Climbing Cleveland Center
Tue 03:20:15 PM 42.2028 -83.4703 77° East 431 496 40,700 339 Climbing Cleveland Center
Tue 03:21:17 PM 42.2331 -83.2864 77° East 433 498 40,900 145 Climbing Cleveland Center
Tue 03:22:19 PM 42.2586 -83.1331 77° East 426 490 41,000 48 Climbing Cleveland Center
Tue 03:23:21 PM 42.3003 -82.9803 70° East 436 502 41,000  Level Cleveland Center
Tue 03:24:23 PM 42.3419 -82.8247 70° East 438 504 41,000  Level Cleveland Center
Tue 03:25:25 PM 42.3694 -82.6633 77° East 442 509 41,000  Level Cleveland Center
Tue 03:26:27 PM 42.3936 -82.4992 79° East 444 511 41,000  Level Cleveland Center
Tue 03:27:29 PM 42.4236 -82.3014 78° East 448 516 41,000  Level Cleveland Center
Tue 03:28:31 PM 42.4478 -82.1367 79° East 449 517 41,000  Level Cleveland Center
Tue 03:29:33 PM 42.4719 -81.9694 79° East 450 518 41,000  Level Cleveland Center
Tue 03:30:34 PM 42.4994 -81.7836 79° East 458 527 41,000  Level Cleveland Center
Tue 03:31:36 PM 42.5244 -81.6097 79° East 460 529 41,000  Level Cleveland Center
Tue 03:32:38 PM 42.5494 -81.4350 79° East 463 533 41,000  Level Cleveland Center
Tue 03:33:40 PM 42.5736 -81.2581 79° East 468 539 41,000  Level Cleveland Center
Tue 03:34:42 PM 42.5989 -81.0786 79° East 475 547 41,000  Level Cleveland Center
Tue 03:35:44 PM 42.6236 -80.8981 79° East 478 550 41,000  Level Cleveland Center
Tue 03:36:45 PM 42.6475 -80.7158 80° East 481 554 41,000  Level Cleveland Center
Tue 03:37:47 PM 42.6731 -80.5369 79° East 481 554 41,000  Level Cleveland Center
Tue 03:38:49 PM 42.7006 -80.3250 80° East 482 555 41,000  Level Cleveland Center
Tue 03:39:51 PM 42.7247 -80.1436 80° East 483 556 41,000  Level Cleveland Center
Tue 03:40:53 PM 42.7486 -79.9544 80° East 487 560 41,000  Level Cleveland Center
Tue 03:41:55 PM 42.7708 -79.7747 80° East 486 559 41,000  Level Cleveland Center
Tue 03:42:57 PM 42.7928 -79.5936 81° East 485 558 41,000  Level Cleveland Center
Tue 03:43:59 PM 42.8153 -79.4122 80° East 487 560 41,000  Level Cleveland Center
Tue 03:45:01 PM 42.8403 -79.2064 81° East 488 562 41,000  Level Cleveland Center
Tue 03:46:03 PM 42.8589 -79.0492 81° East 486 559 41,000  Level Cleveland Center
Tue 03:47:05 PM 42.8856 -78.8317 80° East 486 559 41,000  Level Cleveland Center
Tue 03:48:07 PM 42.9056 -78.6475 82° East 490 564 41,000  Level Cleveland Center
Tue 03:49:09 PM 42.9275 -78.4636 81° East 492 566 41,000  Level Cleveland Center
Tue 03:50:11 PM 42.9475 -78.2775 82° East 494 568 41,000  Level Cleveland Center
Tue 03:51:13 PM 42.9697 -78.0908 81° East 494 568 41,000  Level Cleveland Center
Tue 03:52:15 PM 42.9889 -77.9036 82° East 496 571 41,000  Level Cleveland Center
Tue 03:53:17 PM 43.0100 -77.7172 81° East 492 566 41,000  Level Cleveland Center
Tue 03:54:19 PM 43.0294 -77.5319 82° East 491 565 41,000  Level Cleveland Center
Tue 03:55:21 PM 43.0511 -77.3122 82° East 485 558 41,000  Level Cleveland Center
Tue 03:56:23 PM 43.0700 -77.1297 82° East 484 557 41,000  Level Cleveland Center
Tue 03:57:25 PM 43.0875 -76.9475 82° East 483 556 41,000  Level Cleveland Center
Tue 03:58:27 PM 43.1042 -76.7686 83° East 479 551 41,000  Level Cleveland Center
Tue 03:59:29 PM 43.1222 -76.5867 82° East 480 552 41,000  Level Cleveland Center
Tue 04:00:31 PM 43.1397 -76.4053 82° East 482 555 41,000  Level Cleveland Center
Tue 04:01:34 PM 43.1617 -76.1903 82° East 477 549 41,000  Level Cleveland Center
Tue 04:02:36 PM 43.1764 -76.0083 84° East 477 549 41,000  Level Cleveland Center
Tue 04:03:38 PM 43.1911 -75.8264 84° East 477 549 41,000  Level Cleveland Center
Tue 04:04:40 PM 43.2028 -75.6431 85° East 479 551 41,000  Level Cleveland Center
Tue 04:05:42 PM 43.2197 -75.4622 83° East 479 551 41,000  Level Cleveland Center
Tue 04:06:44 PM 43.2328 -75.2797 84° East 479 551 41,000  Level Cleveland Center
Tue 04:07:46 PM 43.2481 -75.0622 84° East 479 551 41,000  Level Cleveland Center
Tue 04:08:57 PM 43.2622 -74.8569 85° East 481 554 41,000  Level Boston Center
Tue 04:10:01 PM 43.2747 -74.6772 84° East 479 551 41,000  Level Boston Center
Tue 04:11:00 PM 43.2861 -74.4958 85° East 478 550 41,000  Level Boston Center
Tue 04:12:03 PM 43.2986 -74.3164 84° East 478 550 41,000  Level Boston Center
Tue 04:13:04 PM 43.3297 -74.1375 76° East 484 557 41,000  Level Boston Center
Tue 04:14:05 PM 43.3817 -73.9333 71° East 487 560 41,000  Level Boston Center
Tue 04:15:06 PM 43.4139 -73.7536 76° East 489 563 41,000  Level Boston Center
Tue 04:16:07 PM 43.3758 -73.5944 108° East 452 520 41,000 -532 Level Boston Center
Tue 04:17:10 PM 43.2981 -73.4772 132° Southeast 426 490 39,900 -1,200 Descending Boston Center
Tue 04:18:12 PM 43.2019 -73.4056 151° Southeast 403 464 38,500 -1,230 Descending Boston Center
Tue 04:19:12 PM 43.0950 -73.3536 160° South 389 448 37,400 -1,289 Descending Boston Center
Tue 04:20:13 PM 42.9922 -73.3000 159° South 391 450 35,900 -1,525 Descending Boston Center
Tue 04:21:14 PM 42.8872 -73.2475 160° South 399 459 34,300 -1,537 Descending Boston Center
Tue 04:22:14 PM 42.7806 -73.1928 159° South 406 467 32,800 -1,500 Descending Boston Center
Tue 04:23:18 PM 42.6719 -73.1392 160° South 412 474 31,200 -1,488 Descending Boston Center
Tue 04:24:19 PM 42.5639 -73.0858 160° South 413 475 29,700 -1,623 Descending Boston Center
Tue 04:25:20 PM 42.4358 -73.0214 160° South 425 489 27,900 -1,672 Descending Boston Center
Tue 04:26:21 PM 42.3325 -72.9592 156° South 424 488 26,300 -1,525 Descending Boston Center
Tue 04:27:22 PM 42.2536 -72.8436 133° Southeast 426 490 24,800 -1,131 Descending Boston Center
Tue 04:28:23 PM 42.1997 -72.7000 117° Southeast 436 502 24,000 -942 Descending Boston Center
Tue 04:29:23 PM 42.1489 -72.5628 117° Southeast 416 479 22,900 -1,438 Descending Boston Center
Tue 04:30:24 PM 42.0931 -72.4086 116° Southeast 386 444 21,100 -1,610 Descending Boston Center
Tue 04:31:26 PM 42.0461 -72.2819 116° Southeast 381 438 19,600 -1,033 Descending Boston Center
Tue 04:32:26 PM 41.9981 -72.1531 117° Southeast 375 432 19,000 -298 Descending Boston Center
Tue 04:33:27 PM 41.9344 -72.0408 127° Southeast 385 443 19,000  Level Boston Center
Tue 04:34:31 PM 41.8558 -71.9242 132° Southeast 391 450 19,000  Level Boston Center
Tue 04:35:30 PM 41.8100 -71.7875 114° Southeast 401 461 19,000 -590 Level Boston Center
Tue 04:36:33 PM 41.8164 -71.6325 87° East 412 474 17,800 -1,561 Descending Boston Center
Tue 04:37:33 PM 41.8294 -71.4819 83° East 404 465 15,800 -1,934 Descending Boston Center
Tue 04:38:34 PM 41.8403 -71.3414 84° East 384 442 13,900 -1,790 Descending Boston Center
Tue 04:39:37 PM 41.8503 -71.2050 84° East 371 427 12,100 -1,426 Descending Boston Center
Tue 04:40:36 PM 41.8761 -71.0756 75° East 334 384 11,000 -541 Descending Boston Center
Tue 04:41:39 PM 41.9222 -70.9692 60° Northeast 330 380 11,000 -439 Level Boston Center
Tue 04:42:39 PM 41.9681 -70.8633 60° Northeast 330 380 10,100 -843 Descending Boston Center
Tue 04:43:40 PM 42.0119 -70.7644 59° Northeast 327 376 9,300 -823 Descending Boston Center
Tue 04:44:43 PM 42.0719 -70.6706 49° Northeast 327 376 8,400 -871 Descending Boston Center
Tue 04:45:44 PM 42.1447 -70.6058 33° Northeast 320 368 7,500 -984 Descending Boston Center
Tue 04:46:45 PM 42.2233 -70.5764 16° North 299 344 6,400 -1,033 Descending Boston Center
Tue 04:47:46 PM 42.2931 -70.5478 17° North 273 314 5,400 -744 Descending Boston Center
Tue 04:48:46 PM 42.3436 -70.4719 48° Northeast 273 314 4,900 -248 Descending Boston Center
Tue 04:49:47 PM 42.3992 -70.4203 34° Northeast 270 311 4,900  Level Boston Center
Tue 04:50:48 PM 42.4661 -70.4786 327° Northwest 244 281 4,900  Level Boston Center
Tue 04:51:49 PM 42.5008 -70.5503 303° West 229 264 4,900  Level Boston Center
Tue 04:52:50 PM 42.5289 -70.6208 298° West 219 252 4,900 -432 Level Boston Center
Tue 04:53:54 PM 42.5664 -70.6900 306° West 221 254 4,000 -484 Descending Boston Center
Tue 04:54:54 PM 42.5936 -70.7592 298° West 210 242 3,900 -350 Descending Boston Center
Tue 04:55:54 PM 42.5828 -70.8375 259° West 201 231 3,300 -446 Descending Boston Center
Tue 04:56:55 PM 42.5597 -70.9028 244° Southwest 176 203 3,000 -197 Descending Boston Center
Tue 04:57:56 PM 42.5211 -70.9294 207° Southwest 159 183 2,900 -446 Descending Boston Center
Tue 04:58:56 PM 42.4797 -70.9497 200° South 159 183 2,100 -774 Descending Boston Center
Tue 05:00:00 PM 42.4394 -70.9700 200° South 158 182 1,300 -720 Descending Boston Center
Tue 05:01:01 PM 42.4042 -70.9864 199° South 130 150 600 -496 Descending Boston Center
Tue 05:02:01 PM 42.3792 -70.9983 199° South 115 132 300 -300 Descending Boston Center

Login

Don't have an account? Register now (free) for customized features, flight alerts, and more!